KGBK

Magnolia

Magnolia, Louisiana, USA
METAR KGBK 191515Z AUTO 17011KT 10SM FEW025 29/24 A3002 RMK A01
Observed Flight Rules
Aug-19 @ 15:15 UTC (23 minutes ago) Visual Flight Rules
Wind Visibility Clouds
170° at 11 knots 10 miles
  • Few at 2,500' AGL
Temperatures Readings
Current 29°C / 84°F
Dewpoint 24°C / 75°F
Humidity 74%
Altimeter 30.02" Hg
Pressure 1017 hPa
Elevation 59
METAR KGBK 191515Z AUTO 17011KT 10SM FEW025 29/24 A3002 RMK A01
Observed Flight Rules
Aug-19 @ 15:15 UTC
(23 minutes ago)
VFR
Wind Visibility
170° at 11 knots 10 miles
Clouds
  • Few at 2,500' AGL
Temperature Dewpoint
29°C / 84°F 24°C / 75°F
Humidity Altimeter Pressure
74% 30.02" Hg 1017 hPa